Time;durP1;ratioP1;P1;durP2;ratioP2;P2;SDS_P1;SDS_P2;PMS_P1;PMS_P2;Temp;Humidity;BMP_temperature;BMP_pressure;BME280_temperature;BME280_humidity;BME280_pressure;Samples;Min_cycle;Max_cycle;Signal;HPM_P1;HPM_P2
2021/04/21 00:00:15;;;;;;;11.73;9.18;;;10.70;78.60;;;;;;4914782;29;20033;-66
2021/04/21 00:02:42;;;;;;;14.00;9.27;;;10.60;79.20;;;;;;4914061;29;20029;-66
2021/04/21 00:05:09;;;;;;;11.95;9.88;;;10.40;79.70;;;;;;4914364;29;20060;-66
2021/04/21 00:07:35;;;;;;;12.68;9.10;;;10.30;80.10;;;;;;4914274;29;20028;-66
2021/04/21 00:10:02;;;;;;;12.10;9.90;;;10.20;80.50;;;;;;4912767;29;20020;-66
2021/04/21 00:12:30;;;;;;;12.73;10.18;;;10.10;80.60;;;;;;4913321;29;20101;-66
2021/04/21 00:14:56;;;;;;;12.07;9.77;;;10.00;80.70;;;;;;4914000;29;20135;-66
2021/04/21 00:17:23;;;;;;;14.77;10.15;;;10.00;81.20;;;;;;4916710;29;20095;-66
2021/04/21 00:19:52;;;;;;;12.75;9.95;;;9.90;81.60;;;;;;4918271;29;20540;-66
2021/04/21 00:22:19;;;;;;;14.60;9.68;;;9.80;81.90;;;;;;4917269;29;20028;-65
2021/04/21 00:24:47;;;;;;;15.73;9.65;;;9.70;82.30;;;;;;4916024;29;20095;-64
2021/04/21 00:27:15;;;;;;;12.82;9.60;;;9.70;82.60;;;;;;4918052;29;20046;-64
2021/04/21 00:29:47;;;;;;;12.07;9.95;;;9.60;82.90;;;;;;4918146;29;20031;-65
2021/04/21 00:32:15;;;;;;;13.30;9.60;;;9.60;83.00;;;;;;4918278;29;20028;-66
2021/04/21 00:34:43;;;;;;;11.15;9.20;;;9.50;83.20;;;;;;4918146;29;20079;-65
2021/04/21 00:37:11;;;;;;;12.07;9.20;;;9.50;83.80;;;;;;4917270;29;20031;-65
2021/04/21 00:39:41;;;;;;;11.20;9.48;;;9.40;83.10;;;;;;4918057;29;20035;-65
2021/04/21 00:42:09;;;;;;;11.48;9.05;;;9.40;83.20;;;;;;4916069;29;20161;-65
2021/04/21 00:44:47;;;;;;;16.02;10.10;;;9.40;83.20;;;;;;4915734;29;20476;-65
2021/04/21 00:47:38;;;;;;;15.07;9.63;;;9.40;83.50;;;;;;4918102;29;20028;-64
2021/04/21 00:50:13;;;;;;;11.52;9.88;;;9.40;83.40;;;;;;4917569;29;20035;-65
2021/04/21 00:52:52;;;;;;;12.93;9.98;;;9.40;83.50;;;;;;4917395;29;20024;-65
2021/04/21 00:55:23;;;;;;;13.85;9.88;;;9.40;83.70;;;;;;4917804;29;20028;-65
2021/04/21 00:58:10;;;;;;;15.37;9.93;;;9.30;83.90;;;;;;4917322;29;20032;-66
2021/04/21 01:00:46;;;;;;;12.10;9.60;;;9.30;84.30;;;;;;4917666;29;20031;-66
2021/04/21 01:03:23;;;;;;;14.23;10.13;;;9.30;84.60;;;;;;4916675;29;20040;-66
2021/04/21 01:06:06;;;;;;;11.95;10.13;;;9.20;84.60;;;;;;4897840;29;20485;-67
2021/04/21 01:08:51;;;;;;;16.13;10.52;;;9.20;84.90;;;;;;4901060;29;20035;-66
2021/04/21 01:11:30;;;;;;;13.25;10.82;;;9.10;85.20;;;;;;4917703;29;20031;-66
2021/04/21 01:14:15;;;;;;;11.95;10.07;;;9.00;85.30;;;;;;4916394;29;20460;-67
2021/04/21 01:16:43;;;;;;;12.48;10.35;;;9.00;85.60;;;;;;4916162;29;20035;-66
2021/04/21 01:19:19;;;;;;;14.07;10.18;;;8.90;85.30;;;;;;4916409;29;20472;-66
2021/04/21 01:21:56;;;;;;;18.50;11.93;;;8.90;85.70;;;;;;4917076;29;20030;-67
2021/04/21 01:24:29;;;;;;;15.10;11.48;;;8.90;85.70;;;;;;4917016;29;20385;-66
2021/04/21 01:27:10;;;;;;;14.90;11.20;;;8.90;85.80;;;;;;4916135;29;20028;-66
2021/04/21 01:29:49;;;;;;;16.02;10.93;;;8.90;85.90;;;;;;4916701;29;20024;-66
2021/04/21 01:32:20;;;;;;;14.23;10.82;;;8.90;86.00;;;;;;4917222;29;20081;-67
2021/04/21 01:34:48;;;;;;;18.17;11.68;;;8.90;86.20;;;;;;4916189;29;20060;-65
2021/04/21 01:37:20;;;;;;;13.93;11.75;;;8.80;86.40;;;;;;4916388;29;20079;-66
2021/04/21 01:39:53;;;;;;;;;;;8.80;86.60;;;;;;4915872;29;20226;-66
2021/04/21 01:42:21;;;;;;;14.45;11.93;;;8.80;86.70;;;;;;4916585;29;19914;-67
2021/04/21 01:44:50;;;;;;;17.92;12.35;;;8.80;86.50;;;;;;4915446;29;20032;-66
2021/04/21 01:47:20;;;;;;;15.70;12.32;;;8.80;86.50;;;;;;4916341;29;20031;-66
2021/04/21 01:49:51;;;;;;;18.77;13.15;;;8.80;86.50;;;;;;4916556;29;20016;-66
2021/04/21 01:52:31;;;;;;;19.20;12.52;;;8.70;86.70;;;;;;4916958;29;20114;-65
2021/04/21 01:55:02;;;;;;;17.55;12.25;;;8.70;86.70;;;;;;4916020;29;20055;-65
2021/04/21 01:57:53;;;;;;;17.40;12.85;;;8.70;87.00;;;;;;4916491;29;20369;-65
2021/04/21 02:00:34;;;;;;;19.83;12.52;;;8.70;87.20;;;;;;4915356;29;20035;-66
2021/04/21 02:03:15;;;;;;;14.60;11.70;;;8.70;87.40;;;;;;4914261;29;20055;-66
2021/04/21 02:06:03;;;;;;;18.63;12.85;;;8.70;87.50;;;;;;4915155;29;20036;-66
2021/04/21 02:08:42;;;;;;;16.38;12.50;;;8.70;87.60;;;;;;4915860;29;20024;-65
2021/04/21 02:11:20;;;;;;;18.00;12.93;;;8.60;87.50;;;;;;4916322;29;20098;-66
2021/04/21 02:14:07;;;;;;;16.70;12.65;;;8.60;87.70;;;;;;4914809;29;20222;-66
2021/04/21 02:16:53;;;;;;;18.38;12.18;;;8.60;88.00;;;;;;4915468;29;20426;-66
2021/04/21 02:19:47;;;;;;;17.92;13.02;;;8.60;88.00;;;;;;4916463;29;20043;-65
2021/04/21 02:22:50;;;;;;;16.52;12.68;;;8.50;88.30;;;;;;4916425;29;20029;-65
2021/04/21 02:25:38;;;;;;;18.80;13.15;;;8.50;88.70;;;;;;4916142;29;20453;-65
2021/04/21 02:28:20;;;;;;;17.60;12.82;;;8.50;88.80;;;;;;4916163;29;20481;-65
2021/04/21 02:31:07;;;;;;;16.35;12.00;;;8.40;89.40;;;;;;4915151;29;20552;-67
2021/04/21 02:33:42;;;;;;;17.40;13.02;;;8.40;89.00;;;;;;4895860;29;20036;-66
2021/04/21 02:36:12;;;;;;;19.83;14.07;;;8.40;89.00;;;;;;4896822;29;20040;-65
2021/04/21 02:38:52;;;;;;;19.55;14.32;;;8.40;89.20;;;;;;4896153;29;20063;-65
2021/04/21 02:41:38;;;;;;;19.80;13.00;;;8.40;89.40;;;;;;4897189;29;20025;-66
2021/04/21 02:44:16;;;;;;;17.33;12.85;;;8.40;89.30;;;;;;4896325;29;20036;-67
2021/04/21 02:46:55;;;;;;;19.90;13.07;;;8.50;89.40;;;;;;4904549;29;20039;-66
2021/04/21 02:49:46;;;;;;;20.83;13.77;;;8.50;89.30;;;;;;4915936;29;20024;-66
2021/04/21 02:52:22;;;;;;;15.20;12.73;;;8.50;89.30;;;;;;4914947;29;20036;-66
2021/04/21 02:55:13;;;;;;;17.35;13.57;;;8.60;89.10;;;;;;4915190;29;20433;-66
2021/04/21 02:58:01;;;;;;;19.97;13.83;;;8.70;89.10;;;;;;4915106;29;20028;-65
2021/04/21 03:00:29;;;;;;;17.13;12.70;;;8.80;88.70;;;;;;4915440;29;20878;-65
2021/04/21 03:03:06;;;;;;;19.48;12.80;;;8.80;88.40;;;;;;4915215;29;20035;-65
2021/04/21 03:05:34;;;;;;;17.10;13.00;;;8.90;88.20;;;;;;4914762;29;20039;-65
2021/04/21 03:08:24;;;;;;;19.05;14.45;;;9.00;88.00;;;;;;4915307;29;20032;-67
2021/04/21 03:11:02;;;;;;;19.30;13.10;;;9.00;87.60;;;;;;4914955;29;20032;-65
2021/04/21 03:13:35;;;;;;;16.23;12.52;;;9.10;87.50;;;;;;4914635;29;20024;-66
2021/04/21 03:16:05;;;;;;;19.98;13.35;;;9.10;87.20;;;;;;4913306;29;20039;-65
2021/04/21 03:18:32;;;;;;;17.98;14.10;;;9.20;86.90;;;;;;4913859;29;20039;-65
2021/04/21 03:21:15;;;;;;;18.67;14.18;;;9.20;86.60;;;;;;4914943;29;20024;-66
2021/04/21 03:23:43;;;;;;;19.17;12.90;;;9.30;86.40;;;;;;4915315;29;20430;-65
2021/04/21 03:26:10;;;;;;;16.83;13.57;;;9.30;86.30;;;;;;4914469;29;20024;-65
2021/04/21 03:28:39;;;;;;;15.30;12.88;;;9.30;86.30;;;;;;4915215;29;20036;-65
2021/04/21 03:31:08;;;;;;;19.60;13.68;;;9.40;86.20;;;;;;4913367;29;20031;-65
2021/04/21 03:33:41;;;;;;;22.10;14.40;;;9.40;86.30;;;;;;4914396;29;20020;-65
2021/04/21 03:36:08;;;;;;;20.70;14.93;;;9.40;85.90;;;;;;4914825;29;20025;-66
2021/04/21 03:38:35;;;;;;;16.00;12.60;;;9.40;85.80;;;;;;4915069;29;20099;-66
2021/04/21 03:41:01;;;;;;;19.75;13.95;;;9.40;85.60;;;;;;4913873;29;20024;-66
2021/04/21 03:43:28;;;;;;;21.40;14.07;;;9.40;85.60;;;;;;4914062;29;20050;-67
2021/04/21 03:45:55;;;;;;;19.45;14.45;;;9.50;85.90;;;;;;4913353;29;20465;-66
2021/04/21 03:48:21;;;;;;;15.32;13.27;;;9.50;86.00;;;;;;4912790;29;20036;-66
2021/04/21 03:50:53;;;;;;;19.90;14.10;;;9.50;85.90;;;;;;4913975;29;20040;-66
2021/04/21 03:53:19;;;;;;;;;;;9.50;86.10;;;;;;4915269;29;20032;-66
2021/04/21 03:55:46;;;;;;;19.58;14.57;;;9.50;85.40;;;;;;4913843;29;19907;-67
2021/04/21 03:58:16;;;;;;;18.35;13.63;;;9.50;85.10;;;;;;4914932;29;20082;-67
2021/04/21 04:00:44;;;;;;;18.20;14.07;;;9.60;85.10;;;;;;4913569;29;20034;-67
2021/04/21 04:03:14;;;;;;;18.48;14.73;;;9.50;84.90;;;;;;4913459;29;20048;-67
2021/04/21 04:05:45;;;;;;;17.80;14.85;;;9.50;84.70;;;;;;4914738;29;20024;-66
2021/04/21 04:08:14;;;;;;;16.30;13.77;;;9.60;84.70;;;;;;4914091;29;20555;-67
2021/04/21 04:10:47;;;;;;;16.23;14.07;;;9.60;84.80;;;;;;4914763;29;20031;-67
2021/04/21 04:13:13;;;;;;;17.25;14.25;;;9.60;85.10;;;;;;4914777;29;20020;-67
2021/04/21 04:15:39;;;;;;;20.10;14.57;;;9.50;85.40;;;;;;4913958;29;20044;-67
2021/04/21 04:18:07;;;;;;;19.17;14.32;;;9.60;85.50;;;;;;4914602;29;20030;-67
2021/04/21 04:20:33;;;;;;;20.48;15.45;;;9.50;85.50;;;;;;4913324;29;20072;-67
2021/04/21 04:23:05;;;;;;;22.30;15.07;;;9.50;85.70;;;;;;4912634;29;20107;-66
2021/04/21 04:25:36;;;;;;;21.52;14.68;;;9.50;86.00;;;;;;4914353;29;20369;-64
2021/04/21 04:28:03;;;;;;;19.15;15.10;;;9.40;86.00;;;;;;4914342;29;20477;-65
2021/04/21 04:30:30;;;;;;;19.92;14.70;;;9.40;85.90;;;;;;4913967;29;20031;-64
2021/04/21 04:32:58;;;;;;;18.25;14.77;;;9.30;86.40;;;;;;4914547;29;20024;-64
2021/04/21 04:35:24;;;;;;;18.25;15.02;;;9.20;85.80;;;;;;4913048;29;20030;-65
2021/04/21 04:37:50;;;;;;;17.00;14.25;;;9.20;85.80;;;;;;4913741;29;20384;-66
2021/04/21 04:40:18;;;;;;;19.77;13.80;;;9.10;85.70;;;;;;4914598;29;20028;-65
2021/04/21 04:42:45;;;;;;;21.58;15.60;;;9.10;86.00;;;;;;4914328;29;20469;-65
2021/04/21 04:45:12;;;;;;;17.50;14.27;;;9.00;86.30;;;;;;4913726;29;20043;-66
2021/04/21 04:47:52;;;;;;;22.63;15.98;;;8.90;86.20;;;;;;4912952;29;20392;-65
2021/04/21 04:50:20;;;;;;;20.13;15.30;;;8.90;86.30;;;;;;4912017;29;20037;-66
2021/04/21 04:52:49;;;;;;;19.65;16.45;;;8.80;86.40;;;;;;4912962;29;20091;-65
2021/04/21 04:55:17;;;;;;;23.70;17.65;;;8.70;86.80;;;;;;4914257;29;20055;-66
2021/04/21 04:57:47;;;;;;;22.13;17.77;;;8.60;87.40;;;;;;4913914;29;20039;-67
2021/04/21 05:00:26;;;;;;;25.90;19.13;;;8.60;87.70;;;;;;4914515;29;20075;-67
2021/04/21 05:03:06;;;;;;;21.30;18.67;;;8.50;87.90;;;;;;4915340;29;20031;-66
2021/04/21 05:05:35;;;;;;;22.95;18.98;;;8.50;88.50;;;;;;4917053;29;20067;-67
2021/04/21 05:08:06;;;;;;;24.33;19.38;;;8.50;88.80;;;;;;4916233;29;20031;-66
2021/04/21 05:10:36;;;;;;;24.38;19.42;;;8.50;89.00;;;;;;4917473;29;20035;-67
2021/04/21 05:13:05;;;;;;;21.50;18.67;;;8.50;89.20;;;;;;4916654;29;20032;-67
2021/04/21 05:15:40;;;;;;;25.00;18.77;;;8.50;89.30;;;;;;4917041;29;20123;-67
2021/04/21 05:18:24;;;;;;;21.88;18.80;;;8.50;89.30;;;;;;4916582;29;20511;-67
2021/04/21 05:21:14;;;;;;;23.50;19.33;;;8.50;89.30;;;;;;4916609;29;20017;-66
2021/04/21 05:24:01;;;;;;;27.38;19.27;;;8.50;89.30;;;;;;4916960;29;20044;-65
2021/04/21 05:26:48;;;;;;;21.42;17.55;;;8.50;89.20;;;;;;4914972;29;20044;-65
2021/04/21 05:29:27;;;;;;;20.63;17.30;;;8.60;88.70;;;;;;4917257;29;20028;-66
2021/04/21 05:32:14;;;;;;;21.67;16.35;;;8.60;88.40;;;;;;4916387;29;20090;-65
2021/04/21 05:35:17;;;;;;;23.83;17.05;;;8.60;88.20;;;;;;4916745;29;20520;-66
2021/04/21 05:38:27;;;;;;;20.13;15.93;;;8.70;87.40;;;;;;4915836;29;20090;-65
2021/04/21 05:41:23;;;;;;;19.50;15.70;;;8.80;87.20;;;;;;4900534;29;20036;-66
2021/04/21 05:44:26;;;;;;;19.95;15.95;;;8.90;87.50;;;;;;4916341;29;20086;-66
2021/04/21 05:47:10;;;;;;;18.20;16.08;;;9.00;87.40;;;;;;4915127;29;20040;-66
2021/04/21 05:50:08;;;;;;;19.35;15.85;;;9.10;87.50;;;;;;4915014;29;20027;-66
2021/04/21 05:53:02;;;;;;;22.02;16.05;;;9.20;87.60;;;;;;4914439;29;20442;-68
2021/04/21 05:56:14;;;;;;;22.42;16.88;;;9.30;86.30;;;;;;4921113;29;20024;-68
2021/04/21 05:59:04;;;;;;;19.38;15.45;;;9.40;85.10;;;;;;4934170;29;20467;-68
2021/04/21 06:01:33;;;;;;;20.48;15.88;;;9.60;84.60;;;;;;4920068;29;20028;-68
2021/04/21 06:03:59;;;;;;;18.60;15.57;;;9.70;84.10;;;;;;4915752;29;20044;-71
2021/04/21 06:06:26;;;;;;;19.88;15.68;;;9.80;82.90;;;;;;4916091;29;20028;-69
2021/04/21 06:08:52;;;;;;;21.73;15.32;;;9.80;82.40;;;;;;4915475;29;20056;-72
2021/04/21 06:11:28;;;;;;;20.17;16.05;;;9.90;82.30;;;;;;4916463;29;20043;-69
2021/04/21 06:14:00;;;;;;;20.63;15.43;;;10.00;81.70;;;;;;4914609;29;20404;-67
2021/04/21 06:16:28;;;;;;;17.80;15.23;;;10.00;81.60;;;;;;4913863;29;20032;-67
2021/04/21 06:18:58;;;;;;;17.45;13.48;;;10.00;81.30;;;;;;4915932;29;20035;-65
2021/04/21 06:21:27;;;;;;;19.60;15.57;;;10.00;80.90;;;;;;4915343;29;20068;-72
2021/04/21 06:23:54;;;;;;;19.67;14.20;;;10.10;80.90;;;;;;4915331;29;20115;-68
2021/04/21 06:26:29;;;;;;;15.70;14.07;;;10.30;80.30;;;;;;4914221;29;20111;-66
2021/04/21 06:29:05;;;;;;;21.55;13.77;;;10.40;79.70;;;;;;4914157;29;20017;-64
2021/04/21 06:31:32;;;;;;;18.27;14.70;;;10.50;79.90;;;;;;4915670;29;20051;-64
2021/04/21 06:33:58;;;;;;;14.57;11.68;;;10.60;80.00;;;;;;4914180;29;20385;-68
2021/04/21 06:36:34;;;;;;;16.27;12.07;;;10.70;79.90;;;;;;4914785;29;20024;-64
2021/04/21 06:39:00;;;;;;;14.50;11.23;;;10.80;79.00;;;;;;4915257;29;20168;-65
2021/04/21 06:41:27;;;;;;;13.32;10.90;;;10.90;78.30;;;;;;4915333;29;20122;-67
2021/04/21 06:43:55;;;;;;;19.40;12.73;;;10.90;77.80;;;;;;4914623;29;20111;-66
2021/04/21 06:46:20;;;;;;;24.02;12.07;;;11.00;76.50;;;;;;4915882;29;20023;-67
2021/04/21 06:48:55;;;;;;;18.23;12.18;;;11.10;75.50;;;;;;4915565;29;20032;-66
2021/04/21 06:51:24;;;;;;;12.95;10.68;;;11.10;73.90;;;;;;4915263;29;20087;-66
2021/04/21 06:53:52;;;;;;;21.13;11.15;;;11.20;74.00;;;;;;4915419;29;20822;-67
2021/04/21 06:56:25;;;;;;;19.23;11.80;;;11.30;73.80;;;;;;4915520;29;20024;-67
2021/04/21 06:58:51;;;;;;;14.98;12.32;;;11.30;73.30;;;;;;4913552;29;20032;-65
2021/04/21 07:01:29;;;;;;;13.68;11.95;;;11.40;73.00;;;;;;4915669;29;20106;-66
2021/04/21 07:04:17;;;;;;;16.35;12.32;;;11.50;72.60;;;;;;4914608;29;20130;-65
2021/04/21 07:06:44;;;;;;;14.63;12.25;;;11.50;72.80;;;;;;4915460;29;20025;-65
2021/04/21 07:09:18;;;;;;;17.02;12.77;;;11.60;72.70;;;;;;4915354;29;20032;-66
2021/04/21 07:11:44;;;;;;;17.50;12.98;;;11.60;72.30;;;;;;4913349;29;20456;-66
2021/04/21 07:14:11;;;;;;;15.82;12.35;;;11.60;73.10;;;;;;4915322;29;20095;-66
2021/04/21 07:16:41;;;;;;;19.23;14.68;;;11.60;73.60;;;;;;4915346;29;20032;-66
2021/04/21 07:19:11;;;;;;;17.73;14.20;;;11.60;74.50;;;;;;4914341;29;20503;-66
2021/04/21 07:21:40;;;;;;;17.45;15.18;;;11.60;75.00;;;;;;4915089;29;20087;-66
2021/04/21 07:24:09;;;;;;;19.60;14.55;;;11.60;75.30;;;;;;4915067;29;20036;-67
2021/04/21 07:26:40;;;;;;;18.95;14.85;;;11.60;74.60;;;;;;4914407;29;20052;-66
2021/04/21 07:29:07;;;;;;;21.80;14.88;;;11.60;74.70;;;;;;4913837;29;20032;-67
2021/04/21 07:31:38;;;;;;;18.25;14.15;;;11.60;75.00;;;;;;4913654;29;20030;-67
2021/04/21 07:34:03;;;;;;;17.00;14.85;;;11.70;74.70;;;;;;4912992;29;20824;-67
2021/04/21 07:36:29;;;;;;;18.83;14.07;;;11.80;74.00;;;;;;4914953;29;20032;-66
2021/04/21 07:39:06;;;;;;;19.48;14.82;;;11.80;73.70;;;;;;4914212;29;20032;-67
2021/04/21 07:41:40;;;;;;;21.35;14.60;;;11.80;73.50;;;;;;4914936;29;20060;-66
2021/04/21 07:44:25;;;;;;;19.75;15.02;;;11.80;73.00;;;;;;4913316;29;20397;-67
2021/04/21 07:47:06;;;;;;;20.02;14.15;;;11.90;73.10;;;;;;4914128;29;20024;-65
2021/04/21 07:49:34;;;;;;;17.00;12.98;;;12.00;73.30;;;;;;4914924;29;20032;-66
2021/04/21 07:52:00;;;;;;;21.98;14.73;;;12.10;72.80;;;;;;4913447;29;20031;-66
2021/04/21 07:54:27;;;;;;;18.67;14.07;;;12.10;72.40;;;;;;4914139;29;20032;-66
2021/04/21 07:57:09;;;;;;;16.67;13.32;;;12.20;72.10;;;;;;4913341;29;20027;-66
2021/04/21 07:59:43;;;;;;;21.50;15.35;;;12.20;72.20;;;;;;4914494;29;20376;-66
2021/04/21 08:02:10;;;;;;;18.65;15.30;;;12.20;71.90;;;;;;4914300;29;20020;-66
2021/04/21 08:04:49;;;;;;;17.45;14.02;;;12.20;72.40;;;;;;4914640;29;20131;-66
2021/04/21 08:07:27;;;;;;;17.88;14.25;;;12.30;72.40;;;;;;4914141;29;20407;-65
2021/04/21 08:09:53;;;;;;;20.40;16.17;;;12.30;72.30;;;;;;4914480;29;20039;-67
2021/04/21 08:12:19;;;;;;;19.83;15.85;;;12.50;71.90;;;;;;4914879;29;20024;-67
2021/04/21 08:14:48;;;;;;;19.88;15.07;;;12.60;72.10;;;;;;4913681;29;20501;-66
2021/04/21 08:17:15;;;;;;;19.83;16.23;;;12.70;71.40;;;;;;4914718;29;20024;-66
2021/04/21 08:19:53;;;;;;;18.23;14.18;;;12.80;71.30;;;;;;4913428;29;20507;-67
2021/04/21 08:22:25;;;;;;;19.42;16.45;;;12.90;71.40;;;;;;4914082;29;20032;-67
2021/04/21 08:24:50;;;;;;;;;;;13.00;70.30;;;;;;4914784;29;20959;-66
2021/04/21 08:27:18;;;;;;;19.55;14.25;;;13.20;70.10;;;;;;4914679;29;19907;-66
2021/04/21 08:29:46;;;;;;;16.88;14.35;;;13.20;69.60;;;;;;4914002;29;20032;-66
2021/04/21 08:32:18;;;;;;;18.88;14.70;;;13.30;69.70;;;;;;4914683;29;20024;-67
2021/04/21 08:34:48;;;;;;;21.80;15.27;;;13.40;69.20;;;;;;4913133;29;20552;-66
2021/04/21 08:37:14;;;;;;;16.35;14.35;;;13.50;68.60;;;;;;4913396;29;20566;-67
2021/04/21 08:39:41;;;;;;;20.25;14.90;;;13.50;68.10;;;;;;4918188;29;20108;-67
2021/04/21 08:42:08;;;;;;;19.63;14.05;;;13.60;67.80;;;;;;4917315;29;20043;-66
2021/04/21 08:44:40;;;;;;;17.05;13.82;;;13.70;67.80;;;;;;4918026;29;20054;-66
2021/04/21 08:47:06;;;;;;;19.20;14.18;;;13.80;67.00;;;;;;4917835;29;20032;-67
2021/04/21 08:49:32;;;;;;;15.82;13.07;;;14.00;67.00;;;;;;4917334;29;20028;-65
2021/04/21 08:51:59;;;;;;;16.98;12.93;;;14.10;66.70;;;;;;4918063;29;20358;-66
2021/04/21 08:54:28;;;;;;;18.10;13.50;;;14.10;66.40;;;;;;4917793;29;20028;-66
2021/04/21 08:56:55;;;;;;;16.00;12.55;;;14.20;65.80;;;;;;4916905;29;20103;-66
2021/04/21 08:59:20;;;;;;;18.40;12.52;;;14.30;65.60;;;;;;4917826;29;20028;-66
2021/04/21 09:01:47;;;;;;;14.43;12.10;;;14.30;65.30;;;;;;4917592;29;20071;-66
2021/04/21 09:04:16;;;;;;;19.52;13.15;;;14.30;65.10;;;;;;4917328;29;20036;-66
2021/04/21 09:06:45;;;;;;;15.60;12.80;;;14.40;64.30;;;;;;4917593;29;20040;-66
2021/04/21 09:09:11;;;;;;;15.75;12.63;;;14.40;63.90;;;;;;4916283;29;20023;-66
2021/04/21 09:11:37;;;;;;;14.30;12.27;;;14.50;64.30;;;;;;4917054;29;20102;-65
2021/04/21 09:14:03;;;;;;;17.60;12.23;;;14.60;63.10;;;;;;4917261;29;20130;-65
2021/04/21 09:16:29;;;;;;;15.20;11.90;;;14.60;62.40;;;;;;4917329;29;20044;-66
2021/04/21 09:18:55;;;;;;;17.00;11.75;;;14.70;61.30;;;;;;4915127;29;20420;-66
2021/04/21 09:21:26;;;;;;;15.88;10.65;;;14.70;60.80;;;;;;4917335;29;20012;-66
2021/04/21 09:23:51;;;;;;;14.45;10.57;;;14.80;61.40;;;;;;4917683;29;20032;-66
2021/04/21 09:26:21;;;;;;;13.98;11.15;;;14.90;61.00;;;;;;4916665;29;20031;-67
2021/04/21 09:28:53;;;;;;;13.82;11.18;;;15.10;59.40;;;;;;4917065;29;20024;-67
2021/04/21 09:31:27;;;;;;;14.48;10.60;;;15.10;58.20;;;;;;4916930;29;20072;-66
2021/04/21 09:34:12;;;;;;;13.90;11.38;;;15.10;58.40;;;;;;4915683;29;20024;-66
2021/04/21 09:36:46;;;;;;;11.25;9.80;;;15.20;57.40;;;;;;4916961;29;20103;-66
2021/04/21 09:39:17;;;;;;;11.88;10.27;;;15.10;58.00;;;;;;4915835;29;20123;-65
2021/04/21 09:41:45;;;;;;;15.02;9.52;;;15.10;57.10;;;;;;4917010;29;20020;-66
2021/04/21 09:44:24;;;;;;;14.95;10.80;;;15.10;57.20;;;;;;4916763;29;20063;-65
2021/04/21 09:46:50;;;;;;;12.73;9.15;;;15.10;56.60;;;;;;4915107;29;20024;-66
2021/04/21 09:49:37;;;;;;;13.57;10.30;;;15.00;56.30;;;;;;4915709;29;20043;-67
2021/04/21 09:52:23;;;;;;;15.45;8.85;;;14.90;55.90;;;;;;4916977;29;20455;-65
2021/04/21 09:54:51;;;;;;;13.15;8.93;;;14.90;55.90;;;;;;4912251;29;20040;-65
2021/04/21 09:57:16;;;;;;;12.93;10.27;;;15.00;56.10;;;;;;4915490;29;20504;-65
2021/04/21 09:59:56;;;;;;;16.63;9.43;;;15.00;55.00;;;;;;4916147;29;20032;-66
2021/04/21 10:02:32;;;;;;;12.30;9.55;;;15.00;54.70;;;;;;4916698;29;20024;-66
2021/04/21 10:05:18;;;;;;;13.35;8.43;;;15.00;54.60;;;;;;4914931;29;20072;-67
2021/04/21 10:07:44;;;;;;;12.93;9.35;;;15.10;54.90;;;;;;4915565;29;20107;-65
2021/04/21 10:10:10;;;;;;;12.15;9.00;;;15.10;53.00;;;;;;4915387;29;20167;-66
2021/04/21 10:12:39;;;;;;;9.85;8.27;;;15.20;53.90;;;;;;4916529;29;20475;-65
2021/04/21 10:15:09;;;;;;;14.65;9.98;;;15.20;54.20;;;;;;4915291;29;20577;-65
2021/04/21 10:17:37;;;;;;;12.60;10.05;;;15.30;54.20;;;;;;4916299;29;20028;-65
2021/04/21 10:20:06;;;;;;;13.15;9.93;;;15.30;54.50;;;;;;4916046;29;20028;-66
2021/04/21 10:22:32;;;;;;;14.00;10.13;;;15.40;54.80;;;;;;4915639;29;20055;-65
2021/04/21 10:24:59;;;;;;;17.77;12.13;;;15.40;54.10;;;;;;4914702;29;20092;-66
2021/04/21 10:27:25;;;;;;;17.55;12.20;;;15.40;54.20;;;;;;4916094;29;20503;-66
2021/04/21 10:29:51;;;;;;;15.32;11.52;;;15.30;55.00;;;;;;4915328;29;20072;-66
2021/04/21 10:32:18;;;;;;;15.02;12.02;;;15.30;56.10;;;;;;4916134;29;20513;-66
2021/04/21 10:34:44;;;;;;;13.45;11.90;;;15.40;57.00;;;;;;4914911;29;20090;-65
2021/04/21 10:37:12;;;;;;;15.55;13.02;;;15.50;57.30;;;;;;4916112;29;20027;-65
2021/04/21 10:39:38;;;;;;;18.55;12.77;;;15.60;57.20;;;;;;4914863;29;20036;-66
2021/04/21 10:42:07;;;;;;;17.63;12.80;;;15.60;56.90;;;;;;4915003;29;20025;-66
2021/04/21 10:44:34;;;;;;;17.40;12.82;;;15.60;56.70;;;;;;4915625;29;20500;-66
2021/04/21 10:47:04;;;;;;;17.60;13.38;;;15.70;56.70;;;;;;4915611;29;20028;-67
2021/04/21 10:49:37;;;;;;;18.65;13.48;;;15.80;56.90;;;;;;4913874;29;20123;-65
2021/04/21 10:52:13;;;;;;;16.65;12.75;;;15.90;56.50;;;;;;4914409;29;20020;-66
2021/04/21 10:54:39;;;;;;;17.48;13.82;;;16.00;56.60;;;;;;4915726;29;20032;-66
2021/04/21 10:57:19;;;;;;;17.90;13.20;;;16.10;56.10;;;;;;4914831;29;20106;-67
2021/04/21 11:00:24;;;;;;;19.27;13.63;;;16.40;56.40;;;;;;4913619;29;20056;-65
2021/04/21 11:03:09;;;;;;;19.80;15.27;;;16.60;55.90;;;;;;4915040;29;20068;-65
2021/04/21 11:05:41;;;;;;;16.33;14.57;;;16.70;56.00;;;;;;4915411;29;20040;-66
2021/04/21 11:08:12;;;;;;;20.85;16.70;;;16.60;56.10;;;;;;4915256;29;20539;-65
2021/04/21 11:10:42;;;;;;;25.73;18.10;;;16.60;57.70;;;;;;4915106;29;20028;-67
2021/04/21 11:13:09;;;;;;;19.50;16.08;;;16.50;58.80;;;;;;4915246;29;20024;-65
2021/04/21 11:15:38;;;;;;;20.33;16.77;;;16.30;58.20;;;;;;4914961;29;20122;-66
2021/04/21 11:18:07;;;;;;;18.95;15.30;;;16.00;58.60;;;;;;4914769;29;20032;-65
2021/04/21 11:20:48;;;;;;;18.00;14.70;;;15.80;59.30;;;;;;4915110;29;20381;-65
2021/04/21 11:24:00;;;;;;;19.00;15.10;;;15.70;59.40;;;;;;4915242;29;20115;-66
2021/04/21 11:26:27;;;;;;;17.40;14.20;;;15.80;58.00;;;;;;4915148;29;20028;-65
2021/04/21 11:29:01;;;;;;;21.05;13.68;;;16.00;57.50;;;;;;4915097;29;20381;-65
2021/04/21 11:34:13;;;;;;;19.20;14.18;;;16.40;55.40;;;;;;4915161;29;20103;-65
2021/04/21 11:37:07;;;;;;;18.05;12.93;;;16.40;55.40;;;;;;4915052;29;20032;-66
2021/04/21 11:39:42;;;;;;;16.80;14.02;;;16.40;55.80;;;;;;4914401;29;20533;-66
2021/04/21 11:42:32;;;;;;;18.70;14.43;;;16.40;55.90;;;;;;4914627;29;20046;-66
2021/04/21 11:45:12;;;;;;;19.73;13.43;;;16.50;55.70;;;;;;4914219;29;20091;-66
2021/04/21 11:47:42;;;;;;;20.83;14.70;;;16.80;56.20;;;;;;4914878;29;20060;-66
2021/04/21 11:50:11;;;;;;;21.48;15.02;;;16.90;56.00;;;;;;4914475;29;20056;-65
2021/04/21 11:52:56;;;;;;;18.20;13.45;;;16.90;55.40;;;;;;4914167;29;20030;-65
2021/04/21 11:55:36;;;;;;;17.90;13.02;;;16.80;53.90;;;;;;4913467;29;20079;-66
2021/04/21 11:58:04;;;;;;;20.00;14.48;;;16.40;53.80;;;;;;4914550;29;20497;-65
2021/04/21 12:00:40;;;;;;;19.27;13.30;;;16.20;54.60;;;;;;4912833;29;20079;-66
2021/04/21 12:03:14;;;;;;;19.20;13.68;;;16.20;55.30;;;;;;4914613;29;20031;-66
2021/04/21 12:05:41;;;;;;;15.95;12.77;;;16.10;55.40;;;;;;4914717;29;20167;-66
2021/04/21 12:08:07;;;;;;;21.55;14.95;;;16.30;56.00;;;;;;4912610;29;20024;-65
2021/04/21 12:10:35;;;;;;;20.83;16.45;;;16.30;57.10;;;;;;4914654;29;20030;-65
2021/04/21 12:13:30;;;;;;;23.17;18.27;;;16.20;59.00;;;;;;4915461;29;20024;-66
2021/04/21 12:16:12;;;;;;;23.95;18.55;;;15.90;62.20;;;;;;4908919;29;20516;-66
2021/04/21 12:18:52;;;;;;;28.65;18.15;;;15.60;64.70;;;;;;4918573;29;20033;-66
2021/04/21 12:21:18;;;;;;;21.85;17.30;;;15.50;65.70;;;;;;4918183;29;20051;-66
2021/04/21 12:23:57;;;;;;;25.35;16.42;;;15.20;66.60;;;;;;4918008;29;20465;-66
2021/04/21 12:26:34;;;;;;;24.83;16.52;;;15.10;66.50;;;;;;4918265;29;20039;-66
2021/04/21 12:29:04;;;;;;;24.65;17.48;;;14.80;67.10;;;;;;4917527;29;20020;-65
2021/04/21 12:31:31;;;;;;;22.52;16.95;;;14.70;67.80;;;;;;4916952;29;20118;-66
2021/04/21 12:33:59;;;;;;;18.38;14.43;;;14.70;68.10;;;;;;4918122;29;20237;-65
2021/04/21 12:36:26;;;;;;;18.80;13.38;;;14.90;67.60;;;;;;4915977;29;20032;-67
2021/04/21 12:39:08;;;;;;;19.38;13.27;;;15.20;67.50;;;;;;4916624;29;20023;-66
2021/04/21 12:41:35;;;;;;;20.48;12.52;;;15.60;66.60;;;;;;4916235;29;20035;-66
2021/04/21 12:44:34;;;;;;;16.75;10.88;;;15.80;64.90;;;;;;4917828;29;20033;-66
2021/04/21 12:47:05;;;;;;;13.23;10.63;;;15.80;64.20;;;;;;4916461;29;20043;-66
2021/04/21 12:49:36;;;;;;;12.55;9.07;;;15.60;64.20;;;;;;4917345;29;20386;-65
2021/04/21 12:52:05;;;;;;;14.45;9.10;;;15.40;64.80;;;;;;4917717;29;20111;-67
2021/04/21 12:54:33;;;;;;;11.10;9.00;;;15.40;64.90;;;;;;4917608;29;20048;-65
2021/04/21 12:56:58;;;;;;;10.13;7.80;;;15.40;64.50;;;;;;4915757;29;20028;-66
2021/04/21 12:59:24;;;;;;;12.85;7.00;;;15.20;64.60;;;;;;4917765;29;20024;-66
2021/04/21 13:01:50;;;;;;;7.30;6.40;;;15.10;64.50;;;;;;4917505;29;20091;-67
2021/04/21 13:04:16;;;;;;;11.50;6.45;;;15.10;64.40;;;;;;4915936;29;20064;-64
2021/04/21 13:06:46;;;;;;;9.68;6.20;;;15.20;64.30;;;;;;4917554;29;20028;-67